Time;durP1;ratioP1;P1;durP2;ratioP2;P2;SDS_P1;SDS_P2;PMS_P1;PMS_P2;Temp;Humidity;BMP_temperature;BMP_pressure;BME280_temperature;BME280_humidity;BME280_pressure;Samples;Min_cycle;Max_cycle;Signal;HPM_P1;HPM_P2
2022/10/08 00:00:15;;;;;;;11.60;2.92;;;;;;;11.79;96.09;101368.66;1970544;28;20034;-73
2022/10/08 00:01:16;;;;;;;8.32;3.10;;;;;;;11.79;96.79;101366.06;1970527;28;20045;-73
2022/10/08 00:02:13;;;;;;;14.35;3.22;;;;;;;11.79;95.65;101371.28;1970344;28;20046;-71
2022/10/08 00:03:15;;;;;;;12.05;3.10;;;;;;;11.81;95.35;101371.22;1970609;28;20504;-78
2022/10/08 00:04:12;;;;;;;9.70;3.17;;;;;;;11.79;96.34;101357.34;1970463;28;20471;-73
2022/10/08 00:05:10;;;;;;;9.48;3.17;;;;;;;11.78;96.45;101363.50;1970474;28;20030;-70
2022/10/08 00:06:16;;;;;;;13.32;3.47;;;;;;;11.78;96.02;101360.88;1970459;28;20049;-74
2022/10/08 00:07:14;;;;;;;9.73;3.33;;;;;;;11.80;96.07;101362.50;1970445;28;20042;-72
2022/10/08 00:08:11;;;;;;;11.32;3.70;;;;;;;11.81;96.07;101363.38;1970448;28;20421;-72
2022/10/08 00:09:09;;;;;;;10.70;3.33;;;;;;;11.83;95.38;101362.41;1970492;28;20482;-72
2022/10/08 00:10:06;;;;;;;11.88;3.00;;;;;;;11.82;96.68;101365.06;1970349;28;20128;-75
2022/10/08 00:11:11;;;;;;;12.50;3.10;;;;;;;11.82;96.50;101363.31;1970479;28;20072;-73
2022/10/08 00:12:08;;;;;;;11.95;3.42;;;;;;;11.81;96.30;101364.22;1970503;28;20042;-73
2022/10/08 00:13:05;;;;;;;10.63;3.17;;;;;;;11.81;96.50;101358.97;1970323;28;20073;-71
2022/10/08 00:14:05;;;;;;;11.55;3.53;;;;;;;11.83;96.47;101362.41;1970494;28;20075;-71
2022/10/08 00:15:03;;;;;;;10.10;3.08;;;;;;;11.82;96.84;101359.84;1970332;28;20030;-72
2022/10/08 00:16:00;;;;;;;15.00;3.30;;;;;;;11.83;96.72;101362.41;1970507;28;20030;-74
2022/10/08 00:16:58;;;;;;;11.70;3.17;;;;;;;11.85;96.96;101364.97;1970372;28;20072;-70
2022/10/08 00:17:55;;;;;;;8.48;2.92;;;;;;;11.84;96.98;101369.31;1970475;28;20106;-69
2022/10/08 00:18:58;;;;;;;10.43;3.10;;;;;;;11.86;97.81;101374.50;1968047;28;20026;-76
2022/10/08 00:19:56;;;;;;;12.50;3.30;;;;;;;11.85;96.87;101360.56;1970384;28;20030;-71
2022/10/08 00:21:10;;;;;;;13.48;3.35;;;;;;;11.87;97.50;101362.28;1970353;28;20533;-71
2022/10/08 00:22:07;;;;;;;7.47;3.13;;;;;;;11.86;97.44;101366.66;1970268;28;20026;-70
2022/10/08 00:23:04;;;;;;;10.43;2.95;;;;;;;11.89;97.50;101361.31;1961994;28;20088;-80
2022/10/08 00:24:05;;;;;;;18.13;3.58;;;;;;;11.91;97.16;101358.63;1962162;28;20041;-71
2022/10/08 00:25:03;;;;;;;8.35;3.50;;;;;;;11.95;96.75;101365.44;1969789;28;20041;-69
2022/10/08 00:26:05;;;;;;;8.98;2.70;;;;;;;11.98;97.17;101365.31;1970363;28;20053;-72
2022/10/08 00:27:02;;;;;;;11.73;3.30;;;;;;;11.98;97.00;101374.00;1970318;28;20053;-73
2022/10/08 00:27:59;;;;;;;12.52;3.28;;;;;;;11.97;98.02;101363.59;1961994;28;20050;-72
2022/10/08 00:29:02;;;;;;;8.43;3.22;;;;;;;12.01;97.54;101364.34;1961992;28;20034;-73
2022/10/08 00:30:00;;;;;;;11.23;3.03;;;;;;;12.01;97.06;101365.19;1970069;28;20042;-79
2022/10/08 00:30:57;;;;;;;9.25;3.00;;;;;;;12.00;97.47;101366.09;1970243;28;20547;-77
2022/10/08 00:31:55;;;;;;;7.97;3.10;;;;;;;12.02;96.84;101369.53;1970280;28;20152;-72
2022/10/08 00:32:55;;;;;;;11.25;3.25;;;;;;;12.02;97.45;101372.13;1970387;28;20037;-72
2022/10/08 00:33:56;;;;;;;8.95;2.85;;;;;;;12.02;97.80;101366.03;1970322;28;20025;-74
2022/10/08 00:34:53;;;;;;;15.40;2.63;;;;;;;12.01;98.11;101365.19;1970270;28;20503;-77
2022/10/08 00:35:50;;;;;;;10.98;2.97;;;;;;;12.03;97.93;101362.50;1970248;28;20072;-75
2022/10/08 00:36:53;;;;;;;11.10;2.88;;;;;;;12.07;97.44;101371.97;1970357;28;20045;-72
2022/10/08 00:37:51;;;;;;;9.50;2.85;;;;;;;12.09;97.39;101365.78;1970115;28;20088;-73
2022/10/08 00:38:54;;;;;;;11.80;3.40;;;;;;;12.06;97.22;101363.28;1970283;28;20088;-72
2022/10/08 00:39:51;;;;;;;11.45;3.10;;;;;;;12.07;97.34;101361.50;1970214;28;20543;-71
2022/10/08 00:40:49;;;;;;;10.18;3.30;;;;;;;12.09;97.79;101365.78;1970280;28;20033;-71
2022/10/08 00:41:51;;;;;;;9.80;3.30;;;;;;;12.08;98.04;101369.28;1970232;28;20040;-73
2022/10/08 00:42:48;;;;;;;12.93;2.85;;;;;;;12.04;98.57;101359.00;1970166;28;20034;-77
2022/10/08 00:43:50;;;;;;;12.90;3.05;;;;;;;12.06;98.51;101360.66;1961703;28;20042;-70
2022/10/08 00:44:54;;;;;;;13.90;3.22;;;;;;;12.04;98.13;101356.38;1962029;28;20034;-71
2022/10/08 00:45:51;;;;;;;10.73;3.10;;;;;;;12.04;98.57;101359.84;1969811;28;20100;-73
2022/10/08 00:46:50;;;;;;;11.45;3.22;;;;;;;12.02;98.85;101356.44;1970219;28;20049;-70
2022/10/08 00:47:48;;;;;;;14.85;3.25;;;;;;;12.07;98.03;101364.97;1970228;28;20030;-73
2022/10/08 00:48:45;;;;;;;8.98;2.75;;;;;;;12.05;98.70;101366.75;1967905;28;20049;-75
2022/10/08 00:49:48;;;;;;;9.60;3.05;;;;;;;12.07;98.51;101358.88;1969881;28;20048;-73
2022/10/08 00:50:46;;;;;;;14.85;3.47;;;;;;;12.07;98.67;101364.97;1970245;28;20410;-72
2022/10/08 00:51:51;;;;;;;9.20;2.92;;;;;;;12.06;98.44;101362.41;1970055;28;20049;-73
2022/10/08 00:52:55;;;;;;;11.77;3.13;;;;;;;12.10;97.97;101369.22;1970212;28;20044;-70
2022/10/08 00:53:53;;;;;;;13.20;3.55;;;;;;;12.05;99.17;101366.75;1970118;28;20051;-72
2022/10/08 00:54:51;;;;;;;8.95;2.60;;;;;;;12.06;98.65;101365.91;1970137;28;20047;-72
2022/10/08 00:55:49;;;;;;;11.00;3.60;;;;;;;12.12;98.27;101371.78;1970210;28;20112;-76
2022/10/08 00:56:51;;;;;;;13.52;3.05;;;;;;;12.13;98.64;101370.88;1970093;28;20044;-71
2022/10/08 00:57:50;;;;;;;15.32;2.92;;;;;;;12.09;98.97;101368.41;1970105;28;20461;-78
2022/10/08 00:58:50;;;;;;;12.30;3.42;;;;;;;12.08;98.95;101366.69;1970112;28;20044;-77
2022/10/08 00:59:47;;;;;;;11.90;3.40;;;;;;;12.10;99.41;101364.88;1970201;28;20080;-77
2022/10/08 01:00:46;;;;;;;13.68;3.60;;;;;;;12.09;100.00;101373.63;1970072;28;20096;-70
2022/10/08 01:01:43;;;;;;;7.28;2.55;;;;;;;12.14;99.00;101375.22;1970326;28;20045;-75
2022/10/08 01:02:41;;;;;;;10.98;3.10;;;;;;;12.12;99.58;101370.03;1970254;28;20041;-73
2022/10/08 01:03:39;;;;;;;12.32;3.00;;;;;;;12.13;99.21;101374.34;1970253;28;20409;-73
2022/10/08 01:04:39;;;;;;;9.15;3.53;;;;;;;12.14;99.66;101378.66;1970338;28;20049;-77
2022/10/08 01:06:05;;;;;;;9.65;3.30;;;;;;;12.16;99.43;101375.97;1970381;28;20044;-74
2022/10/08 01:07:19;;;;;;;10.68;2.88;;;;;;;12.09;99.78;101378.88;1970084;28;20034;-74
2022/10/08 01:08:37;;;;;;;8.90;3.38;;;;;;;12.08;100.00;101371.91;1970105;28;20509;-74
2022/10/08 01:09:47;;;;;;;10.15;3.10;;;;;;;12.10;100.00;101374.47;1969976;28;20092;-71
2022/10/08 01:11:05;;;;;;;12.32;3.35;;;;;;;12.06;100.00;101384.22;1969864;28;20030;-78
2022/10/08 01:12:38;;;;;;;11.60;2.97;;;;;;;12.13;100.00;101390.03;1970068;28;20406;-72
2022/10/08 01:14:03;;;;;;;10.95;3.17;;;;;;;12.15;99.97;101387.38;1969951;28;20040;-76
2022/10/08 01:15:42;;;;;;;10.10;2.80;;;;;;;12.12;100.00;101393.59;1969977;28;20037;-70
2022/10/08 01:16:57;;;;;;;10.98;3.22;;;;;;;12.08;100.00;101390.22;1970116;28;20049;-72
2022/10/08 01:18:38;;;;;;;15.27;3.30;;;;;;;12.08;100.00;101392.00;1969999;28;20088;-73
2022/10/08 01:20:33;;;;;;;11.82;3.08;;;;;;;12.10;100.00;101390.16;1960409;28;20104;-71
2022/10/08 01:21:50;;;;;;;12.38;3.13;;;;;;;12.10;100.00;101401.50;1955921;28;20042;-70
2022/10/08 01:23:15;;;;;;;11.55;3.20;;;;;;;12.10;100.00;101400.63;1962414;28;20033;-73
2022/10/08 01:26:17;;;;;;;13.43;3.28;;;;;;;12.13;100.00;101394.41;1953672;28;20035;-77
2022/10/08 01:27:40;;;;;;;18.48;3.20;;;;;;;12.04;100.00;101406.91;1953694;28;20042;-72
2022/10/08 01:29:01;;;;;;;9.05;3.50;;;;;;;12.13;100.00;101395.28;1968516;28;20042;-75
2022/10/08 01:30:11;;;;;;;15.30;3.60;;;;;;;12.07;100.00;101395.50;1969824;28;20369;-78
2022/10/08 01:31:18;;;;;;;9.30;3.00;;;;;;;12.12;100.00;101400.56;1969946;28;20057;-76
2022/10/08 01:32:24;;;;;;;13.38;3.33;;;;;;;12.12;100.00;101397.94;1961498;28;20069;-77
2022/10/08 01:33:31;;;;;;;11.10;3.38;;;;;;;12.08;100.00;101397.22;1961849;28;20038;-75
2022/10/08 01:34:55;;;;;;;7.78;2.90;;;;;;;12.02;100.00;101390.44;1969352;28;20037;-77
2022/10/08 01:35:58;;;;;;;14.43;3.50;;;;;;;12.02;100.00;101387.84;1969834;28;20509;-69
2022/10/08 01:37:00;;;;;;;10.65;3.30;;;;;;;12.00;100.00;101389.66;1969896;28;20033;-71
2022/10/08 01:38:05;;;;;;;12.80;3.08;;;;;;;12.03;100.00;101389.53;1969770;28;20021;-74
2022/10/08 01:39:10;;;;;;;13.10;3.50;;;;;;;12.03;100.00;101393.91;1969981;28;20038;-75
2022/10/08 01:40:34;;;;;;;16.35;3.58;;;;;;;11.97;100.00;101397.59;1969814;28;20065;-76
2022/10/08 01:41:32;;;;;;;15.38;3.40;;;;;;;11.97;100.00;101392.38;1969940;28;20040;-76
2022/10/08 01:42:34;;;;;;;12.07;3.20;;;;;;;12.00;100.00;101387.03;1969943;28;20540;-76
2022/10/08 01:43:38;;;;;;;9.57;2.90;;;;;;;11.95;100.00;101391.59;1969695;28;20072;-77
2022/10/08 01:44:46;;;;;;;12.50;3.00;;;;;;;11.91;100.00;101390.03;1969921;28;20047;-76
2022/10/08 01:45:55;;;;;;;13.18;3.70;;;;;;;11.91;100.00;101390.03;1969894;28;20047;-73
2022/10/08 01:46:57;;;;;;;6.43;2.80;;;;;;;11.87;100.00;101399.72;1969815;28;20033;-75
2022/10/08 01:47:59;;;;;;;11.70;3.50;;;;;;;11.83;100.00;101401.63;1969912;28;20033;-76
2022/10/08 01:49:06;;;;;;;9.40;3.58;;;;;;;11.77;100.00;101396.63;1967550;28;20907;-77
2022/10/08 01:50:27;;;;;;;9.02;3.20;;;;;;;11.70;100.00;101397.75;1961404;28;20532;-74
2022/10/08 01:51:33;;;;;;;10.60;3.40;;;;;;;11.66;100.00;101389.19;1963817;28;20034;-73
2022/10/08 01:52:38;;;;;;;12.57;3.10;;;;;;;11.68;100.00;101399.59;1969767;28;20038;-73
2022/10/08 01:53:44;;;;;;;10.35;3.00;;;;;;;11.67;100.00;101392.69;1969846;28;20038;-77
2022/10/08 01:54:47;;;;;;;7.53;2.72;;;;;;;11.66;100.00;101397.03;1969683;28;20108;-76
2022/10/08 01:55:53;;;;;;;9.30;3.00;;;;;;;11.67;100.00;101393.50;1969647;28;20068;-74
2022/10/08 01:56:54;;;;;;;11.77;3.15;;;;;;;11.66;100.00;101393.56;1969776;28;20046;-76
2022/10/08 01:57:58;;;;;;;8.45;2.85;;;;;;;11.70;100.00;101397.75;1969233;28;20034;-78
2022/10/08 01:59:14;;;;;;;6.53;2.88;;;;;;;11.66;100.00;101401.41;1969788;28;20096;-80
2022/10/08 02:00:13;;;;;;;7.35;2.92;;;;;;;11.64;100.00;101403.25;1969832;28;20390;-66
2022/10/08 02:01:41;;;;;;;9.60;3.10;;;;;;;11.58;100.00;101409.56;1969797;28;20441;-65
2022/10/08 02:02:40;;;;;;;14.07;3.45;;;;;;;11.59;100.00;101409.50;1963870;28;20050;-66
2022/10/08 02:04:31;;;;;;;9.00;2.72;;;;;;;11.63;100.00;101409.41;1969732;28;20060;-66
2022/10/08 02:04:55;;;;;;;10.57;3.22;;;;;;;11.53;100.00;101412.34;1969389;28;20033;-66
2022/10/08 02:05:54;;;;;;;9.88;3.17;;;;;;;11.51;100.00;101416.78;1969696;28;20029;-65
2022/10/08 02:06:56;;;;;;;8.45;2.80;;;;;;;11.39;100.00;101414.63;1969594;28;20041;-66
2022/10/08 02:07:54;;;;;;;9.45;2.78;;;;;;;11.38;100.00;101418.13;1969702;28;20041;-65
2022/10/08 02:08:52;;;;;;;8.43;2.50;;;;;;;11.33;100.00;101416.53;1969695;28;20041;-66
2022/10/08 02:09:59;;;;;;;11.98;3.17;;;;;;;11.32;100.00;101409.63;1961178;28;20522;-64
2022/10/08 02:10:57;;;;;;;11.07;3.28;;;;;;;11.23;100.00;101417.81;1961694;28;20034;-64
2022/10/08 02:11:54;;;;;;;12.75;3.00;;;;;;;11.16;100.00;101421.53;1961255;28;20534;-65
2022/10/08 02:12:52;;;;;;;6.82;2.95;;;;;;;11.16;100.00;101416.31;1961366;28;20082;-65
2022/10/08 02:13:49;;;;;;;12.10;3.20;;;;;;;11.02;100.00;101416.81;1968711;28;20114;-67
2022/10/08 02:14:52;;;;;;;8.98;2.90;;;;;;;10.97;100.00;101421.31;1969633;28;20107;-66
2022/10/08 02:16:13;;;;;;;10.57;3.05;;;;;;;10.90;100.00;101410.22;1969529;28;20543;-66
2022/10/08 02:17:51;;;;;;;6.95;2.67;;;;;;;10.80;100.00;101413.16;1969689;28;20038;-65
2022/10/08 02:19:04;;;;;;;7.88;2.95;;;;;;;10.74;100.00;101409.94;1958852;28;20049;-65
2022/10/08 02:20:21;;;;;;;11.75;3.05;;;;;;;10.75;100.00;101411.63;1962579;28;20050;-65
2022/10/08 02:21:25;;;;;;;8.13;2.90;;;;;;;10.69;100.00;101415.28;1969644;28;20053;-66
2022/10/08 02:22:43;;;;;;;6.07;2.92;;;;;;;10.65;100.00;101413.69;1969545;28;20061;-65
2022/10/08 02:23:53;;;;;;;8.40;2.92;;;;;;;10.61;100.00;101412.91;1969511;28;20065;-66
2022/10/08 02:25:11;;;;;;;9.80;2.97;;;;;;;10.59;100.00;101406.91;1969645;28;20417;-65
2022/10/08 02:26:17;;;;;;;5.97;2.38;;;;;;;10.58;100.00;101406.97;1969563;28;20098;-68
2022/10/08 02:27:24;;;;;;;7.90;2.72;;;;;;;10.58;100.00;101401.75;1969504;28;20063;-66
2022/10/08 02:29:09;;;;;;;11.27;3.17;;;;;;;10.58;100.00;101407.84;1969465;28;20120;-66
2022/10/08 02:30:11;;;;;;;7.32;2.42;;;;;;;10.54;100.00;101409.66;1969419;28;20038;-67
2022/10/08 02:31:34;;;;;;;6.82;2.55;;;;;;;10.54;100.00;101407.06;1969633;28;20389;-66
2022/10/08 02:33:03;;;;;;;7.25;2.72;;;;;;;10.53;100.00;101413.19;1961780;28;20050;-67
2022/10/08 02:34:17;;;;;;;8.13;2.42;;;;;;;10.49;100.00;101408.13;1961823;28;20122;-64
2022/10/08 02:35:27;;;;;;;9.38;2.67;;;;;;;10.46;100.00;101419.50;1953613;28;20046;-64
2022/10/08 02:36:33;;;;;;;9.70;2.60;;;;;;;10.46;100.00;101414.28;1954364;28;20118;-65
2022/10/08 02:37:43;;;;;;;7.20;2.40;;;;;;;10.47;100.00;101421.22;1962000;28;20126;-64
2022/10/08 02:38:53;;;;;;;6.65;2.20;;;;;;;10.42;100.00;101418.75;1961749;28;20429;-66
2022/10/08 02:40:00;;;;;;;6.00;2.33;;;;;;;10.41;100.00;101422.22;1961857;28;20062;-66
2022/10/08 02:41:03;;;;;;;11.73;2.80;;;;;;;10.38;100.00;101411.06;1961808;28;20158;-65
2022/10/08 02:42:10;;;;;;;8.30;2.78;;;;;;;10.39;100.00;101417.97;1961979;28;20117;-64
2022/10/08 02:43:19;;;;;;;11.63;2.63;;;;;;;10.38;100.00;101406.69;1961756;28;20062;-63
2022/10/08 02:44:28;;;;;;;11.45;2.97;;;;;;;10.36;100.00;101410.22;1961670;28;20043;-66
2022/10/08 02:45:38;;;;;;;10.43;2.60;;;;;;;10.34;100.00;101410.31;1961850;28;20038;-66
2022/10/08 02:46:40;;;;;;;;;;;;;;;10.34;100.00;101405.09;1962289;28;20046;-66
2022/10/08 02:47:41;;;;;;;6.47;2.88;;;;;;;10.29;100.00;101407.84;1961897;28;19939;-67
2022/10/08 02:48:43;;;;;;;7.28;2.97;;;;;;;10.29;100.00;101412.19;1960397;28;20133;-65
2022/10/08 02:49:50;;;;;;;9.77;3.00;;;;;;;10.27;100.00;101414.84;1961727;28;20045;-66
2022/10/08 02:50:53;;;;;;;10.52;3.13;;;;;;;10.26;100.00;101407.94;1961672;28;20398;-65
2022/10/08 02:51:54;;;;;;;13.52;3.60;;;;;;;10.25;100.00;101410.59;1961762;28;20120;-66
2022/10/08 02:52:52;;;;;;;;;;;;;;;10.28;100.00;101406.16;1962109;28;20026;-67
2022/10/08 02:53:49;;;;;;;8.35;3.08;;;;;;;10.23;100.00;101408.03;1953615;28;19909;-64
2022/10/08 02:54:53;;;;;;;9.57;3.10;;;;;;;10.23;100.00;101408.03;1961193;28;20155;-65
2022/10/08 02:56:04;;;;;;;12.02;3.50;;;;;;;10.24;100.00;101404.53;1961813;28;20030;-64
2022/10/08 02:57:10;;;;;;;11.02;3.13;;;;;;;10.26;100.00;101407.06;1953510;28;20122;-66
2022/10/08 02:58:11;;;;;;;10.95;3.13;;;;;;;10.25;100.00;101405.38;1953773;28;20042;-66
2022/10/08 02:59:10;;;;;;;11.43;3.40;;;;;;;10.22;100.00;101401.13;1961767;28;20074;-66
2022/10/08 03:00:10;;;;;;;9.77;3.40;;;;;;;10.22;100.00;101411.53;1961847;28;20101;-66
2022/10/08 03:01:57;;;;;;;11.25;3.53;;;;;;;10.22;100.00;101406.34;1961705;28;20065;-66
2022/10/08 03:03:06;;;;;;;8.02;3.20;;;;;;;10.21;100.00;101409.84;1959817;28;20038;-65
2022/10/08 03:04:19;;;;;;;6.88;2.92;;;;;;;10.20;100.00;101402.94;1953533;28;20030;-67
2022/10/08 03:05:19;;;;;;;10.98;3.70;;;;;;;10.17;100.00;101397.81;1954717;28;20049;-67
2022/10/08 03:06:17;;;;;;;12.60;3.35;;;;;;;10.18;100.00;101404.72;1961860;28;20398;-65
2022/10/08 03:07:15;;;;;;;13.68;3.67;;;;;;;10.17;100.00;101408.25;1961735;28;20042;-66
2022/10/08 03:08:15;;;;;;;10.75;3.28;;;;;;;10.18;100.00;101407.34;1961917;28;20046;-65
2022/10/08 03:09:16;;;;;;;9.67;3.53;;;;;;;10.18;100.00;101399.50;1962463;28;20042;-66
2022/10/08 03:10:13;;;;;;;9.80;3.33;;;;;;;10.18;100.00;101410.81;1963099;28;20382;-66
2022/10/08 03:11:12;;;;;;;8.88;3.13;;;;;;;10.18;100.00;101405.59;1963204;28;20433;-68
2022/10/08 03:12:10;;;;;;;7.95;3.10;;;;;;;10.17;100.00;101409.06;1963145;28;20049;-65
2022/10/08 03:13:11;;;;;;;8.90;3.42;;;;;;;10.16;100.00;101412.59;1963197;28;20035;-65
2022/10/08 03:14:13;;;;;;;8.40;3.53;;;;;;;10.16;100.00;101412.59;1963092;28;20053;-68
2022/10/08 03:15:13;;;;;;;9.30;3.58;;;;;;;10.17;100.00;101409.06;1963147;28;20038;-66
2022/10/08 03:16:18;;;;;;;7.13;3.67;;;;;;;10.17;100.00;101410.84;1963062;28;20074;-67
2022/10/08 03:17:24;;;;;;;8.82;3.30;;;;;;;10.14;100.00;101414.41;1963225;28;20066;-66
2022/10/08 03:18:24;;;;;;;6.32;3.47;;;;;;;10.16;100.00;101417.81;1963156;28;20038;-67
2022/10/08 03:19:21;;;;;;;8.93;3.10;;;;;;;10.16;100.00;101415.19;1960810;28;20100;-67
2022/10/08 03:20:19;;;;;;;8.02;3.58;;;;;;;10.17;100.00;101416.91;1962964;28;20438;-67
2022/10/08 03:21:18;;;;;;;9.77;3.30;;;;;;;10.16;100.00;101414.34;1963204;28;20486;-64
2022/10/08 03:22:16;;;;;;;9.10;3.42;;;;;;;10.17;100.00;101416.06;1962916;28;20409;-66
2022/10/08 03:23:17;;;;;;;10.30;3.72;;;;;;;10.16;100.00;101411.72;1963177;28;20042;-66
2022/10/08 03:24:15;;;;;;;9.75;3.17;;;;;;;10.18;100.00;101412.53;1963064;28;20045;-66
2022/10/08 03:25:12;;;;;;;10.90;3.20;;;;;;;10.18;100.00;101416.03;1963142;28;20117;-66
2022/10/08 03:26:10;;;;;;;10.23;3.50;;;;;;;10.19;100.00;101422.06;1963069;28;20048;-67
2022/10/08 03:27:07;;;;;;;10.45;3.20;;;;;;;10.18;100.00;101420.38;1963046;28;20051;-66
2022/10/08 03:28:04;;;;;;;9.68;3.40;;;;;;;10.17;100.00;101423.88;1963012;28;20508;-68
2022/10/08 03:29:03;;;;;;;11.32;3.63;;;;;;;10.17;100.00;101421.28;1963049;28;20485;-67
2022/10/08 03:30:01;;;;;;;8.90;3.15;;;;;;;10.19;100.00;101419.47;1962981;28;20091;-64
2022/10/08 03:31:04;;;;;;;7.47;2.80;;;;;;;10.21;100.00;101425.50;1963016;28;20043;-67
2022/10/08 03:32:01;;;;;;;12.25;3.10;;;;;;;10.18;100.00;101431.66;1963264;28;20039;-66
2022/10/08 03:32:59;;;;;;;9.43;3.17;;;;;;;10.20;100.00;101423.81;1963075;28;20092;-65
2022/10/08 03:33:56;;;;;;;10.60;3.35;;;;;;;10.20;100.00;101429.00;1963113;28;20030;-63
2022/10/08 03:34:54;;;;;;;10.13;3.33;;;;;;;10.21;100.00;101435.94;1963020;28;20034;-65
2022/10/08 03:35:51;;;;;;;7.72;3.35;;;;;;;10.20;100.00;101436.84;1954766;28;20077;-66
2022/10/08 03:36:48;;;;;;;10.45;3.42;;;;;;;10.20;100.00;101434.22;1954620;28;20114;-65
2022/10/08 03:37:46;;;;;;;12.35;3.58;;;;;;;10.23;100.00;101430.66;1962114;28;20085;-65
2022/10/08 03:38:43;;;;;;;9.63;3.63;;;;;;;10.23;100.00;101436.72;1962989;28;20068;-66
2022/10/08 03:39:42;;;;;;;10.27;3.60;;;;;;;10.22;100.00;101437.63;1962984;28;20050;-69
2022/10/08 03:40:39;;;;;;;9.82;3.33;;;;;;;10.24;100.00;101442.81;1963075;28;20070;-67
2022/10/08 03:41:38;;;;;;;9.13;3.58;;;;;;;10.23;100.00;101438.50;1962876;28;20045;-66
2022/10/08 03:42:35;;;;;;;11.93;3.50;;;;;;;10.20;100.00;101439.44;1963081;28;20401;-65
2022/10/08 03:43:33;;;;;;;9.10;3.20;;;;;;;10.20;100.00;101444.66;1962711;28;20121;-65
2022/10/08 03:44:30;;;;;;;7.60;3.35;;;;;;;10.20;100.00;101447.28;1963018;28;20097;-68
2022/10/08 03:45:28;;;;;;;9.77;3.17;;;;;;;10.20;100.00;101439.44;1962912;28;20094;-68
2022/10/08 03:46:25;;;;;;;9.63;3.50;;;;;;;10.19;100.00;101440.31;1962873;28;20046;-67
2022/10/08 03:47:22;;;;;;;7.10;3.22;;;;;;;10.19;100.00;101437.72;1962952;28;20486;-67
2022/10/08 03:48:21;;;;;;;8.80;3.40;;;;;;;10.18;100.00;101441.25;1962917;28;20046;-66
2022/10/08 03:49:18;;;;;;;7.38;3.38;;;;;;;10.16;100.00;101443.03;1960556;28;20121;-67
2022/10/08 03:50:16;;;;;;;12.80;3.92;;;;;;;10.15;100.00;101451.75;1962800;28;20080;-67
2022/10/08 03:51:14;;;;;;;10.70;3.47;;;;;;;10.15;100.00;101446.53;1962895;28;20034;-64
2022/10/08 03:52:11;;;;;;;7.47;3.10;;;;;;;10.12;100.00;101454.44;1962860;28;20063;-69
2022/10/08 03:53:08;;;;;;;10.13;3.60;;;;;;;10.11;100.00;101448.41;1962878;28;20038;-66
2022/10/08 03:54:06;;;;;;;11.00;3.80;;;;;;;10.09;100.00;101450.19;1962923;28;20116;-68
2022/10/08 03:55:04;;;;;;;9.38;3.53;;;;;;;10.07;100.00;101449.41;1954631;28;20121;-66
2022/10/08 03:56:05;;;;;;;8.35;3.33;;;;;;;10.04;100.00;101449.50;1954671;28;20052;-65
2022/10/08 03:57:03;;;;;;;10.75;3.85;;;;;;;10.04;100.00;101450.34;1962635;28;20038;-67
2022/10/08 03:58:00;;;;;;;15.23;4.10;;;;;;;10.00;100.00;101451.34;1962710;28;20041;-66
2022/10/08 03:58:59;;;;;;;7.38;3.13;;;;;;;10.01;100.00;101453.03;1962934;28;20185;-68
2022/10/08 03:59:57;;;;;;;11.60;3.97;;;;;;;9.99;100.00;101449.63;1962857;28;20121;-67
2022/10/08 04:01:00;;;;;;;11.30;3.55;;;;;;;9.98;100.00;101449.66;1962783;28;20041;-69
2022/10/08 04:01:57;;;;;;;9.57;3.83;;;;;;;9.99;100.00;101447.00;1962663;28;20075;-66
2022/10/08 04:02:55;;;;;;;11.00;3.90;;;;;;;9.97;100.00;101450.56;1962880;28;20061;-65
2022/10/08 04:03:53;;;;;;;10.05;4.15;;;;;;;9.92;100.00;101450.69;1962682;28;20037;-65
2022/10/08 04:04:50;;;;;;;10.02;3.80;;;;;;;9.89;100.00;101451.66;1962837;28;20041;-65
2022/10/08 04:05:49;;;;;;;12.43;4.22;;;;;;;9.88;100.00;101454.28;1962715;28;20039;-67
2022/10/08 04:06:46;;;;;;;10.45;4.18;;;;;;;9.87;100.00;101448.25;1962837;28;20035;-66
2022/10/08 04:07:43;;;;;;;11.10;4.03;;;;;;;9.84;100.00;101442.25;1962786;28;20489;-65
2022/10/08 04:08:41;;;;;;;9.50;3.97;;;;;;;9.85;100.00;101450.03;1962639;28;20371;-64
2022/10/08 04:09:38;;;;;;;16.73;4.50;;;;;;;9.83;100.00;101450.97;1962722;28;20341;-66
2022/10/08 04:10:37;;;;;;;8.65;4.00;;;;;;;9.82;100.00;101450.13;1962783;28;20071;-65
2022/10/08 04:11:35;;;;;;;10.68;4.07;;;;;;;9.80;100.00;101446.72;1962739;28;20036;-68
2022/10/08 04:12:32;;;;;;;11.80;4.05;;;;;;;9.79;100.00;101451.06;1954473;28;20033;-66
2022/10/08 04:13:29;;;;;;;9.70;4.15;;;;;;;9.77;100.00;101452.88;1954493;28;20035;-66
2022/10/08 04:14:27;;;;;;;14.20;4.47;;;;;;;9.74;100.00;101455.56;1961900;28;20094;-69
2022/10/08 04:15:24;;;;;;;10.85;4.63;;;;;;;9.72;100.00;101449.53;1962707;28;20077;-65
2022/10/08 04:16:22;;;;;;;11.57;4.63;;;;;;;9.70;100.00;101451.34;1962594;28;20071;-65
2022/10/08 04:17:19;;;;;;;16.77;5.40;;;;;;;9.72;100.00;101454.75;1962780;28;20038;-66
2022/10/08 04:18:17;;;;;;;15.00;4.97;;;;;;;9.68;100.00;101453.13;1962702;28;20490;-64
2022/10/08 04:19:16;;;;;;;9.75;4.70;;;;;;;9.67;100.00;101461.84;1960410;28;20049;-67
2022/10/08 04:20:13;;;;;;;10.30;4.70;;;;;;;9.72;100.00;101454.75;1962633;28;20040;-67
2022/10/08 04:21:15;;;;;;;12.18;5.35;;;;;;;9.70;100.00;101458.31;1961943;28;20524;-68
2022/10/08 04:22:13;;;;;;;13.40;5.22;;;;;;;9.74;100.00;101460.78;1962690;28;20069;-68
2022/10/08 04:23:11;;;;;;;15.68;5.10;;;;;;;9.78;100.00;101466.75;1954386;28;20041;-67
2022/10/08 04:24:09;;;;;;;13.05;5.88;;;;;;;9.79;100.00;101466.72;1954516;28;20043;-66
2022/10/08 04:25:06;;;;;;;14.52;5.78;;;;;;;9.78;100.00;101457.19;1961958;28;20038;-69
2022/10/08 04:26:05;;;;;;;16.88;5.88;;;;;;;9.81;100.00;101456.25;1962692;28;20096;-65
2022/10/08 04:27:02;;;;;;;20.23;6.90;;;;;;;9.84;100.00;101455.28;1962558;28;20037;-69
2022/10/08 04:28:00;;;;;;;18.23;7.80;;;;;;;9.86;100.00;101461.31;1962595;28;20114;-66
2022/10/08 04:28:57;;;;;;;19.95;7.90;;;;;;;9.87;100.00;101461.28;1962582;28;20030;-67
2022/10/08 04:29:55;;;;;;;16.73;9.05;;;;;;;9.90;100.00;101463.81;1962629;28;20145;-66
2022/10/08 04:31:05;;;;;;;25.38;11.38;;;;;;;9.96;100.00;101461.91;1962454;28;20038;-65
2022/10/08 04:32:02;;;;;;;24.98;11.93;;;;;;;9.94;100.00;101469.78;1962665;28;20394;-66
2022/10/08 04:33:00;;;;;;;26.20;12.48;;;;;;;9.95;100.00;101466.25;1962560;28;20058;-69
2022/10/08 04:33:57;;;;;;;25.02;12.45;;;;;;;9.98;100.00;101466.16;1962602;28;20031;-67
2022/10/08 04:34:54;;;;;;;25.48;13.02;;;;;;;9.96;100.00;101467.97;1962688;28;20470;-66
2022/10/08 04:35:53;;;;;;;25.98;12.50;;;;;;;9.98;100.00;101466.16;1962518;28;20039;-66
2022/10/08 04:36:50;;;;;;;25.40;13.73;;;;;;;10.00;100.00;101466.13;1962524;28;20060;-66
2022/10/08 04:37:48;;;;;;;33.95;15.98;;;;;;;10.00;100.00;101464.38;1962476;28;20108;-65
2022/10/08 04:38:47;;;;;;;31.90;17.25;;;;;;;10.03;100.00;101469.47;1962546;28;20372;-66
2022/10/08 04:39:44;;;;;;;38.20;17.25;;;;;;;10.06;100.00;101468.53;1962483;28;20049;-67
2022/10/08 04:40:41;;;;;;;36.58;17.30;;;;;;;10.06;100.00;101473.75;1962479;28;20067;-67
2022/10/08 04:41:39;;;;;;;38.53;18.85;;;;;;;10.07;100.00;101472.88;1962461;28;20066;-68
2022/10/08 04:42:36;;;;;;;36.75;18.80;;;;;;;10.10;100.00;101472.78;1962578;28;20061;-67
2022/10/08 04:43:36;;;;;;;44.55;20.60;;;;;;;10.13;100.00;101484.88;1962301;28;20132;-66
2022/10/08 04:44:33;;;;;;;44.03;21.70;;;;;;;10.13;100.00;101474.44;1962539;28;20034;-69
2022/10/08 04:45:31;;;;;;;38.47;20.05;;;;;;;10.15;100.00;101476.09;1962441;28;20109;-66
2022/10/08 04:46:28;;;;;;;42.35;21.08;;;;;;;10.17;100.00;101481.28;1962448;28;20054;-69
2022/10/08 04:47:26;;;;;;;44.05;21.48;;;;;;;10.21;100.00;101476.81;1962527;28;20038;-67
2022/10/08 04:48:23;;;;;;;51.78;24.77;;;;;;;10.22;100.00;101479.38;1962424;28;20047;-67
2022/10/08 04:49:20;;;;;;;43.97;22.58;;;;;;;10.25;100.00;101481.88;1960122;28;20038;-68
2022/10/08 04:50:18;;;;;;;51.58;26.58;;;;;;;10.24;100.00;101490.63;1962346;28;20439;-66